createdAt,value
2022-08-05T00:00:12.050Z,19.06
2022-08-05T00:02:07.675Z,19.06
2022-08-05T00:03:18.769Z,19.06
2022-08-05T00:04:59.818Z,19.06
2022-08-05T00:07:59.370Z,19.13
2022-08-05T00:09:33.627Z,19.19
2022-08-05T00:11:27.980Z,19.13
2022-08-05T00:12:59.072Z,19.13
2022-08-05T00:14:33.464Z,19.13
2022-08-05T00:17:37.945Z,19.19
2022-08-05T00:18:57.557Z,19.19
2022-08-05T00:20:08.830Z,19.19
2022-08-05T00:21:55.381Z,19.25
2022-08-05T00:23:02.480Z,19.25
2022-08-05T00:25:17.484Z,19.19
2022-08-05T00:27:35.886Z,19.25
2022-08-05T00:28:47.485Z,19.25
2022-08-05T00:29:57.635Z,19.25
2022-08-05T00:32:51.652Z,19.25
2022-08-05T00:36:15.864Z,19.19
2022-08-05T00:38:33.782Z,19.13
2022-08-05T00:40:51.824Z,19.13
2022-08-05T00:42:32.184Z,19.19
2022-08-05T00:43:46.874Z,19.13
2022-08-05T00:45:42.848Z,19.13
2022-08-05T00:46:54.197Z,19.13
2022-08-05T00:48:50.862Z,19.13
2022-08-05T00:50:41.908Z,19.13
2022-08-05T00:52:32.536Z,19.13
2022-08-05T00:54:38.191Z,19.00
2022-08-05T00:56:29.726Z,18.94
2022-08-05T00:57:58.032Z,18.94
2022-08-05T00:59:08.449Z,18.81
2022-08-05T01:00:13.284Z,18.81
2022-08-05T01:01:42.146Z,18.81
2022-08-05T01:02:51.472Z,18.75
2022-08-05T01:05:01.927Z,18.81
2022-08-05T01:06:15.576Z,18.81
2022-08-05T01:08:29.899Z,18.88
2022-08-05T01:10:30.663Z,18.81
2022-08-05T01:11:48.499Z,18.75
2022-08-05T01:13:58.288Z,18.63
2022-08-05T01:16:26.394Z,18.63
2022-08-05T01:17:32.909Z,18.63
2022-08-05T01:18:56.283Z,18.69
2022-08-05T01:21:08.453Z,18.69
2022-08-05T01:22:39.704Z,18.75
2022-08-05T01:24:13.432Z,18.81
2022-08-05T01:26:15.005Z,18.88
2022-08-05T01:27:23.392Z,18.88
2022-08-05T01:28:49.381Z,18.88
2022-08-05T01:30:38.517Z,18.94
2022-08-05T01:31:55.621Z,18.94
2022-08-05T01:33:08.578Z,18.94
2022-08-05T01:35:02.065Z,18.94
2022-08-05T01:36:55.906Z,18.75
2022-08-05T01:38:29.231Z,18.69
2022-08-05T01:40:34.695Z,18.63
2022-08-05T01:41:44.407Z,18.63
2022-08-05T01:42:50.221Z,18.63
2022-08-05T01:44:53.916Z,18.56
2022-08-05T01:46:16.443Z,18.63
2022-08-05T01:47:47.826Z,18.69
2022-08-05T01:50:02.094Z,18.75
2022-08-05T01:51:31.639Z,18.81
2022-08-05T01:52:58.655Z,18.81
2022-08-05T01:55:27.803Z,18.75
2022-08-05T01:58:12.156Z,18.81
2022-08-05T01:59:47.133Z,18.75
2022-08-05T02:00:12.365Z,18.75
2022-08-05T02:01:25.368Z,18.75
2022-08-05T02:02:46.466Z,18.75
2022-08-05T02:04:49.623Z,18.81
2022-08-05T02:06:37.066Z,18.81
2022-08-05T02:08:01.159Z,18.81
2022-08-05T02:10:17.475Z,18.81
2022-08-05T02:11:33.446Z,18.81
2022-08-05T02:12:45.236Z,18.81
2022-08-05T02:15:07.023Z,18.88
2022-08-05T02:16:30.588Z,18.88
2022-08-05T02:18:31.686Z,18.81
2022-08-05T02:20:22.565Z,18.75
2022-08-05T02:21:43.015Z,18.75
2022-08-05T02:23:00.752Z,18.69
2022-08-05T02:24:40.901Z,18.63
2022-08-05T02:25:56.514Z,18.63
2022-08-05T02:27:10.280Z,18.56
2022-08-05T02:29:58.649Z,18.56
2022-08-05T02:31:14.672Z,18.63
2022-08-05T02:32:29.194Z,18.63
2022-08-05T02:34:23.359Z,18.69
2022-08-05T02:36:09.358Z,18.75
2022-08-05T02:37:21.621Z,18.75
2022-08-05T02:39:28.600Z,18.69
2022-08-05T02:40:38.676Z,18.69
2022-08-05T02:42:01.239Z,18.69
2022-08-05T02:44:13.104Z,18.63
2022-08-05T02:45:17.872Z,18.63
2022-08-05T02:47:02.423Z,18.56
2022-08-05T02:49:35.762Z,18.56
2022-08-05T02:50:43.591Z,18.56
2022-08-05T02:52:03.646Z,18.56
2022-08-05T02:54:03.972Z,18.56
2022-08-05T02:55:52.044Z,18.56
2022-08-05T02:57:10.358Z,18.56
2022-08-05T03:00:11.985Z,18.63
2022-08-05T03:01:21.027Z,18.69
2022-08-05T03:02:27.632Z,18.69
2022-08-05T03:04:37.167Z,18.69
2022-08-05T03:06:56.031Z,18.69
2022-08-05T03:09:04.832Z,18.69
2022-08-05T03:11:54.456Z,18.69
2022-08-05T03:14:48.175Z,18.69
2022-08-05T03:16:33.245Z,18.69
2022-08-05T03:17:44.822Z,18.63
2022-08-05T03:19:12.904Z,18.63
2022-08-05T03:21:33.210Z,18.63
2022-08-05T03:23:07.542Z,18.69
2022-08-05T03:24:29.225Z,18.69
2022-08-05T03:27:59.736Z,18.69
2022-08-05T03:29:05.862Z,18.69
2022-08-05T03:30:55.628Z,18.69
2022-08-05T03:33:17.559Z,18.69
2022-08-05T03:34:49.613Z,18.69
2022-08-05T03:35:58.901Z,18.69
2022-08-05T03:38:01.126Z,18.63
2022-08-05T03:39:28.373Z,18.63
2022-08-05T03:41:15.168Z,18.63
2022-08-05T03:44:10.015Z,18.63
2022-08-05T03:45:23.613Z,18.56
2022-08-05T03:46:55.067Z,18.50
2022-08-05T03:48:57.463Z,18.50
2022-08-05T03:50:32.113Z,18.50
2022-08-05T03:56:04.209Z,18.56
2022-08-05T03:58:28.876Z,18.50
2022-08-05T03:59:46.739Z,18.50
2022-08-05T04:00:12.680Z,18.44
2022-08-05T04:01:27.467Z,18.44
2022-08-05T04:02:58.464Z,18.31
2022-08-05T04:05:41.425Z,18.25
2022-08-05T04:06:51.053Z,18.25
2022-08-05T04:07:59.774Z,18.19
2022-08-05T04:10:33.373Z,18.19
2022-08-05T04:11:47.261Z,18.25
2022-08-05T04:13:11.653Z,18.25
2022-08-05T04:15:18.202Z,18.31
2022-08-05T04:17:06.893Z,18.31
2022-08-05T04:18:44.625Z,18.25
2022-08-05T04:20:37.414Z,18.25
2022-08-05T04:22:09.747Z,18.25
2022-08-05T04:23:20.755Z,18.25
2022-08-05T04:26:39.213Z,18.25
2022-08-05T04:27:58.214Z,18.25
2022-08-05T04:29:34.430Z,18.25
2022-08-05T04:31:19.991Z,18.19
2022-08-05T04:32:37.853Z,18.19
2022-08-05T04:34:18.103Z,18.13
2022-08-05T04:38:00.957Z,18.13
2022-08-05T04:39:27.556Z,18.13
2022-08-05T04:40:47.831Z,18.13
2022-08-05T04:42:44.216Z,18.19
2022-08-05T04:43:57.122Z,18.19
2022-08-05T04:45:23.053Z,18.19
2022-08-05T04:47:47.278Z,18.06
2022-08-05T04:49:12.163Z,18.00
2022-08-05T04:51:46.337Z,17.88
2022-08-05T04:53:38.787Z,17.81
2022-08-05T04:54:50.220Z,17.81
2022-08-05T04:57:18.484Z,17.88
2022-08-05T04:59:21.824Z,17.94
2022-08-05T05:00:12.567Z,17.94
2022-08-05T05:01:33.519Z,17.94
2022-08-05T05:03:44.199Z,18.00
2022-08-05T05:06:36.705Z,18.00
2022-08-05T05:08:04.548Z,17.94
2022-08-05T05:09:40.364Z,17.94
2022-08-05T05:11:41.480Z,17.88
2022-08-05T05:12:57.064Z,17.75
2022-08-05T05:14:18.340Z,17.75
2022-08-05T05:16:50.658Z,17.75
2022-08-05T05:18:34.137Z,17.81
2022-08-05T05:20:28.777Z,17.81
2022-08-05T05:22:24.496Z,17.88
2022-08-05T05:24:02.460Z,17.94
2022-08-05T05:26:15.471Z,18.06
2022-08-05T05:28:30.903Z,18.13
2022-08-05T05:30:04.464Z,18.13
2022-08-05T05:31:35.872Z,18.19
2022-08-05T05:33:17.067Z,18.13
2022-08-05T05:34:52.446Z,18.13
2022-08-05T05:36:12.635Z,18.19
2022-08-05T05:38:13.343Z,18.13
2022-08-05T05:39:24.454Z,18.13
2022-08-05T05:40:37.602Z,18.19
2022-08-05T05:42:35.087Z,18.19
2022-08-05T05:43:58.117Z,18.19
2022-08-05T05:45:40.026Z,18.19
2022-08-05T05:48:05.395Z,18.25
2022-08-05T05:49:23.440Z,18.31
2022-08-05T05:50:41.309Z,18.31
2022-08-05T05:52:42.191Z,18.31
2022-08-05T05:54:49.750Z,18.31
2022-08-05T05:56:32.634Z,18.38
2022-08-05T05:58:44.087Z,18.38
2022-08-05T05:59:57.517Z,18.38
2022-08-05T06:00:11.673Z,18.38
2022-08-05T06:01:30.357Z,18.44
2022-08-05T06:03:40.255Z,18.44
2022-08-05T06:05:54.053Z,18.44
2022-08-05T06:07:02.960Z,18.44
2022-08-05T06:08:36.481Z,18.44
2022-08-05T06:10:53.148Z,18.31
2022-08-05T06:12:02.691Z,18.25
2022-08-05T06:13:08.165Z,18.25
2022-08-05T06:15:23.955Z,18.31
2022-08-05T06:17:31.672Z,18.31
2022-08-05T06:19:07.341Z,18.31
2022-08-05T06:21:35.980Z,18.31
2022-08-05T06:22:47.193Z,18.31
2022-08-05T06:23:50.209Z,18.31
2022-08-05T06:26:35.125Z,18.19
2022-08-05T06:28:56.486Z,18.19
2022-08-05T06:31:02.874Z,18.25
2022-08-05T06:33:12.428Z,18.25
2022-08-05T06:35:15.380Z,18.31
2022-08-05T06:37:56.926Z,18.38
2022-08-05T06:40:08.688Z,18.38
2022-08-05T06:41:31.508Z,18.44
2022-08-05T06:42:40.309Z,18.44
2022-08-05T06:45:08.803Z,18.50
2022-08-05T06:46:56.161Z,18.63
2022-08-05T06:50:00.130Z,18.75
2022-08-05T06:51:44.821Z,18.81
2022-08-05T06:53:27.977Z,18.81
2022-08-05T06:54:54.078Z,18.81
2022-08-05T06:56:34.245Z,18.88
2022-08-05T06:59:21.605Z,19.06
2022-08-05T07:00:11.909Z,19.06
2022-08-05T07:01:32.479Z,19.13
2022-08-05T07:02:44.729Z,19.19
2022-08-05T07:04:39.753Z,19.31
2022-08-05T07:06:14.344Z,19.44
2022-08-05T07:07:35.410Z,19.50
2022-08-05T07:09:40.472Z,19.63
2022-08-05T07:11:07.366Z,19.69
2022-08-05T07:12:35.548Z,19.69
2022-08-05T07:14:55.580Z,19.69
2022-08-05T07:18:00.013Z,19.69
2022-08-05T07:20:05.028Z,19.38
2022-08-05T07:22:42.943Z,19.19
2022-08-05T07:24:11.252Z,19.13
2022-08-05T07:26:30.727Z,19.19
2022-08-05T07:28:52.403Z,19.25
2022-08-05T07:31:03.043Z,19.31
2022-08-05T07:32:38.805Z,19.31
2022-08-05T07:34:57.980Z,19.38
2022-08-05T07:37:19.710Z,19.44
2022-08-05T07:38:43.208Z,19.44
2022-08-05T07:43:20.782Z,19.31
2022-08-05T07:44:31.506Z,19.31
2022-08-05T07:45:57.381Z,19.38
2022-08-05T07:48:17.431Z,19.44
2022-08-05T07:50:18.459Z,19.50
2022-08-05T07:51:36.794Z,19.50
2022-08-05T07:53:36.861Z,19.63
2022-08-05T07:54:53.679Z,19.63
2022-08-05T07:58:57.544Z,19.75
2022-08-05T08:00:12.403Z,19.81
2022-08-05T08:01:16.036Z,19.75
2022-08-05T08:03:14.655Z,19.69
2022-08-05T08:05:28.186Z,19.63
2022-08-05T08:06:44.975Z,19.63
2022-08-05T08:08:00.187Z,19.63
2022-08-05T08:09:46.609Z,19.63
2022-08-05T08:11:00.962Z,19.63
2022-08-05T08:12:54.959Z,19.75
2022-08-05T08:15:16.182Z,19.94
2022-08-05T08:17:50.721Z,20.00
2022-08-05T08:19:07.103Z,20.06
2022-08-05T08:22:38.955Z,20.25
2022-08-05T08:24:51.301Z,20.38
2022-08-05T08:26:48.425Z,20.38
2022-08-05T08:30:05.413Z,20.44
2022-08-05T08:31:41.432Z,20.50
2022-08-05T08:33:08.282Z,20.50
2022-08-05T08:34:53.681Z,20.31
2022-08-05T08:36:38.521Z,20.31
2022-08-05T08:38:11.611Z,20.25
2022-08-05T08:40:30.206Z,20.25
2022-08-05T08:41:52.612Z,20.19
2022-08-05T08:46:15.624Z,20.44
2022-08-05T08:51:54.649Z,20.75
2022-08-05T08:53:12.698Z,20.75
2022-08-05T08:54:27.512Z,20.69
2022-08-05T08:56:53.018Z,20.56
2022-08-05T08:58:37.593Z,20.50
2022-08-05T09:00:12.063Z,20.50
2022-08-05T09:01:23.142Z,20.44
2022-08-05T09:02:51.501Z,20.50
2022-08-05T09:05:16.077Z,20.50
2022-08-05T09:07:28.210Z,20.56
2022-08-05T09:09:02.436Z,20.56
2022-08-05T09:10:53.660Z,20.56
2022-08-05T09:12:43.753Z,20.50
2022-08-05T09:14:01.130Z,20.50
2022-08-05T09:16:37.376Z,20.50
2022-08-05T09:18:18.050Z,20.63
2022-08-05T09:19:36.761Z,20.75
2022-08-05T09:23:27.184Z,21.13
2022-08-05T09:24:50.557Z,21.19
2022-08-05T09:26:55.929Z,21.31
2022-08-05T09:29:30.994Z,21.44
2022-08-05T09:30:58.553Z,21.44
2022-08-05T09:33:39.865Z,21.50
2022-08-05T09:35:26.429Z,21.38
2022-08-05T09:36:33.661Z,21.31
2022-08-05T09:39:16.506Z,21.19
2022-08-05T09:41:38.306Z,21.06
2022-08-05T09:43:09.841Z,21.00
2022-08-05T09:44:24.565Z,21.00
2022-08-05T09:47:02.961Z,20.88
2022-08-05T09:48:41.689Z,20.75
2022-08-05T09:51:15.383Z,20.50
2022-08-05T09:53:00.608Z,20.38
2022-08-05T09:54:49.607Z,20.50
2022-08-05T09:57:01.374Z,20.81
2022-08-05T09:59:09.589Z,21.13
2022-08-05T10:00:12.759Z,21.44
2022-08-05T10:01:32.021Z,21.56
2022-08-05T10:02:44.761Z,21.63
2022-08-05T10:04:53.284Z,21.81
2022-08-05T10:06:04.778Z,21.88
2022-08-05T10:07:20.247Z,21.94
2022-08-05T10:11:12.768Z,22.38
2022-08-05T10:12:33.650Z,22.56
2022-08-05T10:13:54.586Z,22.75
2022-08-05T10:15:43.522Z,23.00
2022-08-05T10:16:52.868Z,23.06
2022-08-05T10:18:37.844Z,23.25
2022-08-05T10:20:59.908Z,23.63
2022-08-05T10:22:29.799Z,23.69
2022-08-05T10:24:27.214Z,23.13
2022-08-05T10:26:14.354Z,22.81
2022-08-05T10:28:12.980Z,22.69
2022-08-05T10:30:06.468Z,22.56
2022-08-05T10:34:48.336Z,22.56
2022-08-05T10:36:08.393Z,22.63
2022-08-05T10:37:17.916Z,22.63
2022-08-05T10:39:59.442Z,22.63
2022-08-05T10:41:45.293Z,22.81
2022-08-05T10:42:53.497Z,22.81
2022-08-05T10:44:46.705Z,22.75
2022-08-05T10:46:25.207Z,22.69
2022-08-05T10:47:34.882Z,22.69
2022-08-05T10:51:22.327Z,22.31
2022-08-05T10:52:51.955Z,22.25
2022-08-05T10:54:28.620Z,22.19
2022-08-05T10:57:07.593Z,22.19
2022-08-05T10:58:19.694Z,22.31
2022-08-05T11:00:18.596Z,22.50
2022-08-05T11:01:54.883Z,22.75
2022-08-05T11:04:08.571Z,22.88
2022-08-05T11:05:53.124Z,22.94
2022-08-05T11:07:33.290Z,23.00
2022-08-05T11:09:45.614Z,23.13
2022-08-05T11:11:57.390Z,23.25
2022-08-05T11:13:03.687Z,23.19
2022-08-05T11:14:12.982Z,23.31
2022-08-05T11:18:35.495Z,23.50
2022-08-05T11:21:02.566Z,23.63
2022-08-05T11:22:32.729Z,23.69
2022-08-05T11:26:03.172Z,24.19
2022-08-05T11:27:50.118Z,24.06
2022-08-05T11:29:12.169Z,23.88
2022-08-05T11:30:53.249Z,23.56
2022-08-05T11:32:41.691Z,23.38
2022-08-05T11:34:22.797Z,23.38
2022-08-05T11:36:52.611Z,23.50
2022-08-05T11:39:33.386Z,23.31
2022-08-05T11:41:12.817Z,23.13
2022-08-05T11:44:53.114Z,23.06
2022-08-05T11:47:50.518Z,23.00
2022-08-05T11:49:04.801Z,23.00
2022-08-05T11:50:42.314Z,23.00
2022-08-05T11:52:24.160Z,23.00
2022-08-05T11:53:44.905Z,23.13
2022-08-05T11:55:31.931Z,23.25
2022-08-05T11:56:50.358Z,23.31
2022-08-05T11:58:53.882Z,23.44
2022-08-05T12:00:11.900Z,23.56
2022-08-05T12:01:33.029Z,23.81
2022-08-05T12:02:40.140Z,23.94
2022-08-05T12:04:31.061Z,24.19
2022-08-05T12:06:18.468Z,24.31
2022-08-05T12:08:08.484Z,24.25
2022-08-05T12:10:45.147Z,24.00
2022-08-05T12:12:14.311Z,23.75
2022-08-05T12:13:48.745Z,23.63
2022-08-05T12:15:40.071Z,23.25
2022-08-05T12:17:02.110Z,23.06
2022-08-05T12:20:25.961Z,22.88
2022-08-05T12:22:14.390Z,22.69
2022-08-05T12:23:26.873Z,22.56
2022-08-05T12:24:40.335Z,22.38
2022-08-05T12:26:23.950Z,22.31
2022-08-05T12:27:32.494Z,22.19
2022-08-05T12:29:15.848Z,22.13
2022-08-05T12:31:33.496Z,22.06
2022-08-05T12:33:07.278Z,22.13
2022-08-05T12:34:39.038Z,22.19
2022-08-05T12:36:33.507Z,22.25
2022-08-05T12:37:38.332Z,22.25
2022-08-05T12:38:57.189Z,22.25
2022-08-05T12:41:13.415Z,22.38
2022-08-05T12:42:38.561Z,22.31
2022-08-05T12:43:55.707Z,22.56
2022-08-05T12:46:12.475Z,22.81
2022-08-05T12:47:32.420Z,23.19
2022-08-05T12:49:20.237Z,23.38
2022-08-05T12:52:14.331Z,23.75
2022-08-05T12:53:38.760Z,23.75
2022-08-05T12:55:09.193Z,23.63
2022-08-05T12:57:26.339Z,23.13
2022-08-05T13:02:01.081Z,23.31
2022-08-05T13:03:22.136Z,23.50
2022-08-05T13:04:54.752Z,23.44
2022-08-05T13:06:51.883Z,23.50
2022-08-05T13:08:46.085Z,23.56
2022-08-05T13:10:09.180Z,23.56
2022-08-05T13:12:58.233Z,23.31
2022-08-05T13:15:18.200Z,23.13
2022-08-05T13:16:45.575Z,23.00
2022-08-05T13:18:34.169Z,22.88
2022-08-05T13:19:52.853Z,22.81
2022-08-05T13:21:06.951Z,22.75
2022-08-05T13:23:18.261Z,22.69
2022-08-05T13:24:58.244Z,22.88
2022-08-05T13:27:05.175Z,23.00
2022-08-05T13:29:37.612Z,23.13
2022-08-05T13:32:04.464Z,23.31
2022-08-05T13:34:22.074Z,23.50
2022-08-05T13:36:28.070Z,23.69
2022-08-05T13:37:34.489Z,23.63
2022-08-05T13:40:12.919Z,23.38
2022-08-05T13:42:24.513Z,22.94
2022-08-05T13:43:45.792Z,22.81
2022-08-05T13:44:59.063Z,22.69
2022-08-05T13:48:09.444Z,22.50
2022-08-05T13:50:14.803Z,22.38
2022-08-05T13:51:22.325Z,22.31
2022-08-05T13:53:18.861Z,22.19
2022-08-05T13:55:01.207Z,22.00
2022-08-05T13:57:00.081Z,21.81
2022-08-05T13:59:30.676Z,21.63
2022-08-05T14:00:12.111Z,21.63
2022-08-05T14:01:44.275Z,21.63
2022-08-05T14:03:15.842Z,21.63
2022-08-05T14:05:01.524Z,21.56
2022-08-05T14:07:56.359Z,21.50
2022-08-05T14:09:29.731Z,21.56
2022-08-05T14:11:20.915Z,21.63
2022-08-05T14:13:23.871Z,21.69
2022-08-05T14:14:39.044Z,21.88
2022-08-05T14:17:30.292Z,22.44
2022-08-05T14:18:40.161Z,22.56
2022-08-05T14:19:55.075Z,22.56
2022-08-05T14:22:50.501Z,22.81
2022-08-05T14:24:11.519Z,22.75
2022-08-05T14:25:22.464Z,22.75
2022-08-05T14:27:56.425Z,22.94
2022-08-05T14:29:35.269Z,23.13
2022-08-05T14:30:55.906Z,23.25
2022-08-05T14:33:59.132Z,23.31
2022-08-05T14:35:20.650Z,23.31
2022-08-05T14:36:48.885Z,23.44
2022-08-05T14:38:36.426Z,23.50
2022-08-05T14:39:49.354Z,23.44
2022-08-05T14:41:06.903Z,23.44
2022-08-05T14:43:58.789Z,23.31
2022-08-05T14:45:21.964Z,23.06
2022-08-05T14:46:29.727Z,22.88
2022-08-05T14:49:13.688Z,22.44
2022-08-05T14:51:06.403Z,22.25
2022-08-05T14:52:36.587Z,22.19
2022-08-05T14:55:39.513Z,22.19
2022-08-05T14:57:00.403Z,22.19
2022-08-05T14:58:54.015Z,22.13
2022-08-05T15:00:11.774Z,22.06
2022-08-05T15:02:24.522Z,22.00
2022-08-05T15:03:39.275Z,22.19
2022-08-05T15:05:19.914Z,22.31
2022-08-05T15:08:07.699Z,22.44
2022-08-05T15:10:38.290Z,22.69
2022-08-05T15:12:59.690Z,22.56
2022-08-05T15:14:42.253Z,22.44
2022-08-05T15:16:36.798Z,22.25
2022-08-05T15:18:55.541Z,21.88
2022-08-05T15:20:24.915Z,21.81
2022-08-05T15:21:28.134Z,21.75
2022-08-05T15:23:14.768Z,21.56
2022-08-05T15:24:20.562Z,21.56
2022-08-05T15:25:51.728Z,21.56
2022-08-05T15:27:51.930Z,21.75
2022-08-05T15:29:08.308Z,21.81
2022-08-05T15:30:23.767Z,21.81
2022-08-05T15:32:16.673Z,21.69
2022-08-05T15:34:04.356Z,21.69
2022-08-05T15:35:36.007Z,21.69
2022-08-05T15:38:32.798Z,21.81
2022-08-05T15:42:54.138Z,21.75
2022-08-05T15:44:30.868Z,21.69
2022-08-05T15:46:35.904Z,21.38
2022-08-05T15:47:43.044Z,21.25
2022-08-05T15:49:09.800Z,21.25
2022-08-05T15:52:13.466Z,21.25
2022-08-05T15:54:14.981Z,21.19
2022-08-05T15:56:03.389Z,21.13
2022-08-05T15:57:49.084Z,21.00
2022-08-05T15:58:58.195Z,20.94
2022-08-05T16:00:12.408Z,20.88
2022-08-05T16:02:28.219Z,20.81
2022-08-05T16:03:34.557Z,20.75
2022-08-05T16:05:41.730Z,20.69
2022-08-05T16:06:55.907Z,20.69
2022-08-05T16:08:04.624Z,20.69
2022-08-05T16:09:50.305Z,20.63
2022-08-05T16:11:05.835Z,20.50
2022-08-05T16:12:39.810Z,20.50
2022-08-05T16:14:21.044Z,20.44
2022-08-05T16:15:25.269Z,20.56
2022-08-05T16:16:39.248Z,20.69
2022-08-05T16:18:17.011Z,20.81
2022-08-05T16:20:38.706Z,20.88
2022-08-05T16:22:01.213Z,20.88
2022-08-05T16:23:58.055Z,21.06
2022-08-05T16:25:52.271Z,20.88
2022-08-05T16:27:07.333Z,20.81
2022-08-05T16:29:37.392Z,20.88
2022-08-05T16:31:04.212Z,20.94
2022-08-05T16:32:39.436Z,20.94
2022-08-05T16:34:28.459Z,21.13
2022-08-05T16:35:42.056Z,21.19
2022-08-05T16:36:58.473Z,21.31
2022-08-05T16:40:42.274Z,21.50
2022-08-05T16:43:15.771Z,21.56
2022-08-05T16:44:21.170Z,21.44
2022-08-05T16:47:28.727Z,20.81
2022-08-05T16:49:14.191Z,20.69
2022-08-05T16:50:21.545Z,20.69
2022-08-05T16:51:57.798Z,20.56
2022-08-05T16:53:22.840Z,20.50
2022-08-05T16:55:20.550Z,20.56
2022-08-05T16:57:53.302Z,20.69
2022-08-05T16:59:08.631Z,20.63
2022-08-05T17:00:12.073Z,20.63
2022-08-05T17:01:52.886Z,20.69
2022-08-05T17:03:03.624Z,20.75
2022-08-05T17:04:53.581Z,20.81
2022-08-05T17:06:02.303Z,20.88
2022-08-05T17:07:16.678Z,20.88
2022-08-05T17:10:02.791Z,20.88
2022-08-05T17:11:16.868Z,20.94
2022-08-05T17:12:51.583Z,21.00
2022-08-05T17:15:15.656Z,21.31
2022-08-05T17:17:17.249Z,21.31
2022-08-05T17:19:01.174Z,21.25
2022-08-05T17:20:49.616Z,21.25
2022-08-05T17:21:58.645Z,21.25
2022-08-05T17:24:03.328Z,21.19
2022-08-05T17:26:49.662Z,21.06
2022-08-05T17:27:56.774Z,21.06
2022-08-05T17:29:07.466Z,21.06
2022-08-05T17:31:59.581Z,21.06
2022-08-05T17:33:17.104Z,21.00
2022-08-05T17:34:38.895Z,20.94
2022-08-05T17:37:40.521Z,20.88
2022-08-05T17:38:58.074Z,20.81
2022-08-05T17:40:37.821Z,20.81
2022-08-05T17:43:50.549Z,20.75
2022-08-05T17:45:17.903Z,20.63
2022-08-05T17:46:45.096Z,20.50
2022-08-05T17:48:35.388Z,20.38
2022-08-05T17:49:52.133Z,20.38
2022-08-05T17:51:21.920Z,20.31
2022-08-05T17:53:36.048Z,20.31
2022-08-05T17:54:49.085Z,20.25
2022-08-05T17:55:56.390Z,20.19
2022-08-05T17:57:54.081Z,20.00
2022-08-05T17:59:12.933Z,20.00
2022-08-05T18:00:12.104Z,19.88
2022-08-05T18:01:50.310Z,19.81
2022-08-05T18:03:03.653Z,19.69
2022-08-05T18:05:43.157Z,19.63
2022-08-05T18:07:20.475Z,19.63
2022-08-05T18:08:45.902Z,19.50
2022-08-05T18:11:24.218Z,19.38
2022-08-05T18:12:39.313Z,19.38
2022-08-05T18:13:53.683Z,19.31
2022-08-05T18:15:39.653Z,19.19
2022-08-05T18:16:55.471Z,19.13
2022-08-05T18:19:01.796Z,19.06
2022-08-05T18:20:49.003Z,19.06
2022-08-05T18:22:54.439Z,19.00
2022-08-05T18:24:29.053Z,19.00
2022-08-05T18:26:08.072Z,19.00
2022-08-05T18:27:22.950Z,18.94
2022-08-05T18:28:40.386Z,18.94
2022-08-05T18:30:34.940Z,18.88
2022-08-05T18:31:43.923Z,18.81
2022-08-05T18:33:08.832Z,18.75
2022-08-05T18:35:28.297Z,18.69
2022-08-05T18:37:33.428Z,18.63
2022-08-05T18:38:41.296Z,18.63
2022-08-05T18:43:01.988Z,18.69
2022-08-05T18:44:35.124Z,18.63
2022-08-05T18:45:56.274Z,18.56
2022-08-05T18:47:51.487Z,18.56
2022-08-05T18:49:30.818Z,18.44
2022-08-05T18:52:06.301Z,18.38
2022-08-05T18:54:17.971Z,18.31
2022-08-05T18:55:34.981Z,18.31
2022-08-05T18:56:51.130Z,18.25
2022-08-05T18:59:44.199Z,18.13
2022-08-05T19:00:20.287Z,18.13
2022-08-05T19:01:47.238Z,18.13
2022-08-05T19:03:14.215Z,18.06
2022-08-05T19:06:57.310Z,18.00
2022-08-05T19:08:04.803Z,18.00
2022-08-05T19:09:23.097Z,17.94
2022-08-05T19:11:28.662Z,18.00
2022-08-05T19:13:05.522Z,18.00
2022-08-05T19:18:08.058Z,17.94
2022-08-05T19:19:21.898Z,17.88
2022-08-05T19:20:41.482Z,17.88
2022-08-05T19:22:27.516Z,17.81
2022-08-05T19:24:08.092Z,17.81
2022-08-05T19:26:05.025Z,17.75
2022-08-05T19:28:05.538Z,17.75
2022-08-05T19:29:10.697Z,17.75
2022-08-05T19:30:30.791Z,17.75
2022-08-05T19:32:32.329Z,17.69
2022-08-05T19:33:40.673Z,17.69
2022-08-05T19:34:59.067Z,17.63
2022-08-05T19:37:17.428Z,17.56
2022-08-05T19:39:12.896Z,17.56
2022-08-05T19:40:44.888Z,17.50
2022-08-05T19:43:10.723Z,17.50
2022-08-05T19:45:25.510Z,17.44
2022-08-05T19:47:16.184Z,17.38
2022-08-05T19:49:03.487Z,17.31
2022-08-05T19:50:15.204Z,17.31
2022-08-05T19:52:06.011Z,17.31
2022-08-05T19:56:13.769Z,17.19
2022-08-05T19:57:47.695Z,17.13
2022-08-05T20:00:12.065Z,17.13
2022-08-05T20:01:28.165Z,17.13
2022-08-05T20:02:32.942Z,17.06
2022-08-05T20:04:31.345Z,17.06
2022-08-05T20:05:51.815Z,17.06
2022-08-05T20:07:48.050Z,17.00
2022-08-05T20:09:55.076Z,16.94
2022-08-05T20:11:11.677Z,16.94
2022-08-05T20:12:38.063Z,16.94
2022-08-05T20:15:02.025Z,16.88
2022-08-05T20:16:39.739Z,16.88
2022-08-05T20:17:42.810Z,16.88
2022-08-05T20:19:42.218Z,16.81
2022-08-05T20:21:00.046Z,16.81
2022-08-05T20:22:09.696Z,16.81
2022-08-05T20:23:54.545Z,16.81
2022-08-05T20:25:03.578Z,16.81
2022-08-05T20:26:16.613Z,16.75
2022-08-05T20:28:16.510Z,16.75
2022-08-05T20:29:27.686Z,16.75
2022-08-05T20:30:44.930Z,16.75
2022-08-05T20:32:45.247Z,16.69
2022-08-05T20:33:48.821Z,16.69
2022-08-05T20:34:55.498Z,16.63
2022-08-05T20:36:34.272Z,16.63
2022-08-05T20:38:40.900Z,16.56
2022-08-05T20:40:10.588Z,16.56
2022-08-05T20:42:25.644Z,16.50
2022-08-05T20:43:59.737Z,16.44
2022-08-05T20:45:56.625Z,16.44
2022-08-05T20:47:45.419Z,16.38
2022-08-05T20:48:52.900Z,16.38
2022-08-05T20:50:14.743Z,16.38
2022-08-05T20:52:02.493Z,16.31
2022-08-05T20:53:07.352Z,16.25
2022-08-05T20:55:54.977Z,16.19
2022-08-05T20:58:32.012Z,16.13
2022-08-05T21:00:40.831Z,16.13
2022-08-05T21:02:12.392Z,16.13
2022-08-05T21:03:47.911Z,16.06
2022-08-05T21:05:25.621Z,16.06
2022-08-05T21:07:20.898Z,16.06
2022-08-05T21:08:52.044Z,16.06
2022-08-05T21:10:48.979Z,16.06
2022-08-05T21:13:11.219Z,16.00
2022-08-05T21:14:49.324Z,16.00
2022-08-05T21:16:32.285Z,16.00
2022-08-05T21:17:40.616Z,16.00
2022-08-05T21:18:51.628Z,16.00
2022-08-05T21:21:14.635Z,15.94
2022-08-05T21:22:38.316Z,15.88
2022-08-05T21:23:43.728Z,15.81
2022-08-05T21:25:34.006Z,15.75
2022-08-05T21:26:53.426Z,15.75
2022-08-05T21:28:13.941Z,15.75
2022-08-05T21:30:31.696Z,15.69
2022-08-05T21:31:41.629Z,15.69
2022-08-05T21:32:54.841Z,15.69
2022-08-05T21:35:17.685Z,15.69
2022-08-05T21:37:04.972Z,15.63
2022-08-05T21:38:15.742Z,15.63
2022-08-05T21:40:13.760Z,15.56
2022-08-05T21:41:22.025Z,15.56
2022-08-05T21:43:24.315Z,15.50
2022-08-05T21:45:56.490Z,15.44
2022-08-05T21:47:32.720Z,15.44
2022-08-05T21:49:07.745Z,15.38
2022-08-05T21:52:16.620Z,15.38
2022-08-05T21:54:03.890Z,15.31
2022-08-05T21:55:18.292Z,15.31
2022-08-05T21:58:30.639Z,15.25
2022-08-05T22:00:12.683Z,15.25
2022-08-05T22:01:26.285Z,15.19
2022-08-05T22:02:37.137Z,15.19
2022-08-05T22:04:48.372Z,15.19
2022-08-05T22:06:02.441Z,15.19
2022-08-05T22:07:39.977Z,15.13
2022-08-05T22:10:26.611Z,15.06
2022-08-05T22:11:36.480Z,15.06
2022-08-05T22:12:52.395Z,15.06
2022-08-05T22:17:28.753Z,14.94
2022-08-05T22:18:59.726Z,14.94
2022-08-05T22:21:19.481Z,14.94
2022-08-05T22:23:21.528Z,14.88
2022-08-05T22:26:10.285Z,14.81
2022-08-05T22:27:25.454Z,14.81
2022-08-05T22:30:07.874Z,14.75
2022-08-05T22:31:44.342Z,14.75
2022-08-05T22:33:15.192Z,14.75
2022-08-05T22:35:48.668Z,14.69
2022-08-05T22:36:59.211Z,14.69
2022-08-05T22:38:34.531Z,14.63
2022-08-05T22:40:25.714Z,14.63
2022-08-05T22:42:09.721Z,14.63
2022-08-05T22:43:39.694Z,14.56
2022-08-05T22:45:21.967Z,14.56
2022-08-05T22:46:33.445Z,14.56
2022-08-05T22:47:49.967Z,14.56
2022-08-05T22:50:20.155Z,14.50
2022-08-05T22:52:04.498Z,14.50
2022-08-05T22:53:35.927Z,14.50
2022-08-05T22:55:23.788Z,14.44
2022-08-05T22:57:05.913Z,14.44
2022-08-05T22:58:28.660Z,14.38
2022-08-05T23:00:12.111Z,14.38
2022-08-05T23:01:25.913Z,14.38
2022-08-05T23:03:57.727Z,14.38
2022-08-05T23:05:42.860Z,14.38
2022-08-05T23:06:53.957Z,14.38
2022-08-05T23:08:05.216Z,14.38
2022-08-05T23:10:42.713Z,14.38
2022-08-05T23:11:56.656Z,14.31
2022-08-05T23:13:07.887Z,14.31
2022-08-05T23:14:57.773Z,14.31
2022-08-05T23:16:26.068Z,14.31
2022-08-05T23:18:00.429Z,14.31
2022-08-05T23:20:17.963Z,14.25
2022-08-05T23:21:24.097Z,14.31
2022-08-05T23:22:56.082Z,14.25